Time;durP1;ratioP1;P1;durP2;ratioP2;P2;SDS_P1;SDS_P2;PMS_P1;PMS_P2;Temp;Humidity;BMP_temperature;BMP_pressure;BME280_temperature;BME280_humidity;BME280_pressure;Samples;Min_cycle;Max_cycle;Signal;HPM_P1;HPM_P2
2020/12/01 00:01:18;;;;;;;4.90;3.75;;;;;;;;;;5073235;28;20293;-82
2020/12/01 00:03:46;;;;;;;6.03;4.10;;;;;;;;;;5073211;28;20197;-81
2020/12/01 00:06:13;;;;;;;5.57;4.10;;;;;;;;;;5073134;28;20297;-81
2020/12/01 00:08:40;;;;;;;5.40;3.15;;;;;;;;;;5076111;28;20277;-80
2020/12/01 00:11:07;;;;;;;4.90;3.42;;;;;;;;;;5080982;28;20229;-77
2020/12/01 00:13:34;;;;;;;3.63;2.95;;;;;;;;;;5090018;28;20253;-83
2020/12/01 00:16:01;;;;;;;4.22;3.60;;;;;;;;;;5089604;28;20220;-79
2020/12/01 00:18:27;;;;;;;3.85;3.42;;;;;;;;;;5091641;28;20194;-76
2020/12/01 00:20:55;;;;;;;5.25;3.47;;;;;;;;;;5079100;28;20739;-77
2020/12/01 00:23:22;;;;;;;4.15;3.50;;;;;;;;;;5076435;28;20678;-82
2020/12/01 00:25:49;;;;;;;5.05;3.65;;;;;;;;;;5076261;28;20733;-80
2020/12/01 00:28:16;;;;;;;3.70;2.97;;;;;;;;;;5076696;28;20205;-80
2020/12/01 00:30:43;;;;;;;7.65;3.67;;;;;;;;;;5079638;28;20201;-77
2020/12/01 00:33:10;;;;;;;3.72;3.30;;;;;;;;;;5077579;28;20229;-80
2020/12/01 00:35:37;;;;;;;8.18;3.35;;;;;;;;;;5074116;28;20226;-78
2020/12/01 00:38:04;;;;;;;6.93;3.78;;;;;;;;;;5073975;28;20244;-81
2020/12/01 00:40:31;;;;;;;5.15;3.88;;;;;;;;;;5074315;28;20287;-79
2020/12/01 00:42:58;;;;;;;4.72;3.70;;;;;;;;;;5075249;28;20209;-80
2020/12/01 00:45:25;;;;;;;5.70;3.78;;;;;;;;;;5076127;28;20301;-77
2020/12/01 00:47:51;;;;;;;5.93;3.30;;;;;;;;;;5076253;28;20226;-81
2020/12/01 00:50:19;;;;;;;4.45;3.55;;;;;;;;;;5076244;28;20285;-79
2020/12/01 00:52:46;;;;;;;4.20;3.80;;;;;;;;;;5077863;28;20203;-77
2020/12/01 00:55:14;;;;;;;5.60;4.32;;;;;;;;;;5083456;28;20202;-81
2020/12/01 00:57:41;;;;;;;5.57;4.40;;;;;;;;;;5092906;28;20346;-80
2020/12/01 01:00:08;;;;;;;4.43;4.03;;;;;;;;;;5093797;28;20196;-78
2020/12/01 01:02:34;;;;;;;4.25;3.75;;;;;;;;;;5093951;28;20197;-81
2020/12/01 01:05:01;;;;;;;5.85;3.90;;;;;;;;;;5078093;28;20241;-85
2020/12/01 01:07:28;;;;;;;5.00;3.63;;;;;;;;;;5075552;28;20233;-78
2020/12/01 01:09:55;;;;;;;5.88;4.18;;;;;;;;;;5075752;28;20216;-78
2020/12/01 01:12:22;;;;;;;6.05;4.95;;;;;;;;;;5075225;28;20236;-79
2020/12/01 01:14:49;;;;;;;5.00;4.50;;;;;;;;;;5078423;28;20213;-77
2020/12/01 01:17:16;;;;;;;5.60;4.25;;;;;;;;;;5083257;28;20192;-76
2020/12/01 01:19:43;;;;;;;7.10;4.32;;;;;;;;;;5093761;28;20229;-82
2020/12/01 01:22:10;;;;;;;4.90;4.40;;;;;;;;;;5091833;28;20205;-78
2020/12/01 01:24:37;;;;;;;5.60;4.45;;;;;;;;;;5093505;28;20224;-81
2020/12/01 01:27:03;;;;;;;5.05;4.05;;;;;;;;;;5077920;28;20205;-75
2020/12/01 01:29:31;;;;;;;4.20;3.67;;;;;;;;;;5075097;28;20205;-78
2020/12/01 01:31:58;;;;;;;5.88;4.35;;;;;;;;;;5075293;28;20204;-80
2020/12/01 01:34:25;;;;;;;4.93;4.00;;;;;;;;;;5074873;28;20234;-78
2020/12/01 01:36:52;;;;;;;6.13;5.07;;;;;;;;;;5076784;28;20189;-77
2020/12/01 01:39:19;;;;;;;5.32;4.13;;;;;;;;;;5081693;28;20192;-76
2020/12/01 01:41:46;;;;;;;5.63;4.47;;;;;;;;;;5093012;28;20200;-79
2020/12/01 01:44:21;;;;;;;4.63;3.90;;;;;;;;;;5092692;28;20288;-78
2020/12/01 01:46:51;;;;;;;5.10;3.85;;;;;;;;;;5091744;28;20192;-81
2020/12/01 01:49:20;;;;;;;6.63;4.30;;;;;;;;;;5075669;28;20213;-77
2020/12/01 01:51:49;;;;;;;5.50;3.67;;;;;;;;;;5074949;28;20284;-77
2020/12/01 01:54:17;;;;;;;5.85;4.18;;;;;;;;;;5073509;28;20232;-75
2020/12/01 01:56:46;;;;;;;6.65;4.38;;;;;;;;;;5074709;28;20289;-80
2020/12/01 01:59:14;;;;;;;4.65;3.90;;;;;;;;;;5076985;28;20196;-76
2020/12/01 02:01:41;;;;;;;3.92;3.30;;;;;;;;;;5074807;28;20755;-79
2020/12/01 02:04:09;;;;;;;4.88;3.58;;;;;;;;;;5072362;28;20201;-76
2020/12/01 02:06:38;;;;;;;4.47;3.35;;;;;;;;;;5072238;28;20715;-77
2020/12/01 02:09:06;;;;;;;7.50;3.80;;;;;;;;;;5072389;28;20669;-78
2020/12/01 02:11:34;;;;;;;3.78;3.25;;;;;;;;;;5072450;28;20217;-77
2020/12/01 02:14:04;;;;;;;4.95;3.33;;;;;;;;;;5074256;28;20228;-77
2020/12/01 02:16:32;;;;;;;3.83;3.40;;;;;;;;;;5074449;28;20311;-77
2020/12/01 02:18:58;;;;;;;3.20;2.47;;;;;;;;;;5074390;28;20269;-76
2020/12/01 02:21:29;;;;;;;3.78;3.13;;;;;;;;;;5078106;28;20194;-74
2020/12/01 02:23:57;;;;;;;3.38;2.83;;;;;;;;;;5074477;28;20558;-77
2020/12/01 02:26:25;;;;;;;3.85;3.42;;;;;;;;;;5070613;28;20210;-79
2020/12/01 02:28:52;;;;;;;3.92;3.20;;;;;;;;;;5071628;28;20196;-78
2020/12/01 02:31:19;;;;;;;8.30;3.60;;;;;;;;;;5070586;28;20196;-76
2020/12/01 02:33:46;;;;;;;4.00;3.45;;;;;;;;;;5074042;28;20228;-78
2020/12/01 02:36:14;;;;;;;3.78;3.40;;;;;;;;;;5074004;28;20646;-77
2020/12/01 02:38:41;;;;;;;4.88;3.67;;;;;;;;;;5074107;28;20202;-76
2020/12/01 02:41:08;;;;;;;4.40;3.50;;;;;;;;;;5073530;28;20285;-81
2020/12/01 02:43:36;;;;;;;4.63;3.70;;;;;;;;;;5076699;28;20285;-81
2020/12/01 02:46:03;;;;;;;5.53;3.78;;;;;;;;;;5073913;28;20202;-76
2020/12/01 02:48:30;;;;;;;6.90;4.75;;;;;;;;;;5071652;28;20281;-75
2020/12/01 02:50:56;;;;;;;5.75;4.40;;;;;;;;;;5071428;28;20456;-77
2020/12/01 02:53:23;;;;;;;6.00;4.32;;;;;;;;;;5071297;28;20308;-80
2020/12/01 02:55:50;;;;;;;6.38;4.80;;;;;;;;;;5073497;28;20221;-76
2020/12/01 02:58:17;;;;;;;7.60;5.85;;;;;;;;;;5073904;28;20195;-77
2020/12/01 03:00:45;;;;;;;7.95;5.72;;;;;;;;;;5073809;28;20543;-79
2020/12/01 03:03:12;;;;;;;7.47;5.43;;;;;;;;;;5073811;28;20546;-75
2020/12/01 03:05:39;;;;;;;11.27;6.40;;;;;;;;;;5076974;28;20224;-81
2020/12/01 03:08:06;;;;;;;11.55;7.85;;;;;;;;;;5084725;28;20193;-77
2020/12/01 03:10:33;;;;;;;11.35;7.95;;;;;;;;;;5091888;28;20291;-77
2020/12/01 03:12:59;;;;;;;14.30;7.32;;;;;;;;;;5090991;28;20221;-83
2020/12/01 03:15:26;;;;;;;12.20;7.85;;;;;;;;;;5090029;28;20734;-77
2020/12/01 03:17:54;;;;;;;11.02;7.30;;;;;;;;;;5073625;28;20613;-76
2020/12/01 03:20:21;;;;;;;10.05;8.35;;;;;;;;;;5073541;28;20189;-78
2020/12/01 03:22:48;;;;;;;11.82;8.27;;;;;;;;;;5073233;28;20205;-77
2020/12/01 03:25:14;;;;;;;12.88;8.93;;;;;;;;;;5073688;28;20309;-75
2020/12/01 03:27:41;;;;;;;13.35;8.90;;;;;;;;;;5077234;28;20295;-79
2020/12/01 03:30:08;;;;;;;15.05;10.00;;;;;;;;;;5073546;28;20281;-79
2020/12/01 03:32:35;;;;;;;17.20;10.02;;;;;;;;;;5070115;28;20629;-77
2020/12/01 03:35:04;;;;;;;15.38;10.75;;;;;;;;;;5070944;28;20293;-76
2020/12/01 03:37:31;;;;;;;18.63;11.75;;;;;;;;;;5070828;28;20555;-76
2020/12/01 03:39:58;;;;;;;20.35;11.27;;;;;;;;;;5073922;28;20605;-78
2020/12/01 03:42:25;;;;;;;22.05;11.63;;;;;;;;;;5073366;28;20291;-77
2020/12/01 03:44:52;;;;;;;19.88;12.43;;;;;;;;;;5072208;28;20305;-76
2020/12/01 03:47:18;;;;;;;17.50;11.80;;;;;;;;;;5073359;28;20197;-77
2020/12/01 03:49:45;;;;;;;21.23;11.50;;;;;;;;;;5076918;28;20200;-75
2020/12/01 03:52:13;;;;;;;18.08;11.65;;;;;;;;;;5073165;28;20648;-79
2020/12/01 03:54:40;;;;;;;20.98;11.75;;;;;;;;;;5072755;28;20714;-79
2020/12/01 03:57:07;;;;;;;19.42;11.32;;;;;;;;;;5074791;28;20224;-78
2020/12/01 03:59:34;;;;;;;22.88;13.25;;;;;;;;;;5074506;28;20201;-79
2020/12/01 04:02:01;;;;;;;19.00;12.25;;;;;;;;;;5076887;28;20291;-78
2020/12/01 04:04:29;;;;;;;23.52;12.25;;;;;;;;;;5076635;28;20210;-80
2020/12/01 04:06:56;;;;;;;18.15;12.52;;;;;;;;;;5076945;28;20202;-79
2020/12/01 04:09:24;;;;;;;15.77;10.23;;;;;;;;;;5076975;28;20198;-80
2020/12/01 04:11:51;;;;;;;19.10;10.88;;;;;;;;;;5080334;28;20225;-80
2020/12/01 04:14:18;;;;;;;16.25;11.75;;;;;;;;;;5075029;28;20217;-75
2020/12/01 04:16:45;;;;;;;15.77;11.10;;;;;;;;;;5074336;28;20326;-79
2020/12/01 04:19:12;;;;;;;18.27;12.05;;;;;;;;;;5073960;28;20201;-75
2020/12/01 04:21:38;;;;;;;20.95;11.55;;;;;;;;;;5074322;28;20233;-78
2020/12/01 04:24:05;;;;;;;16.15;10.65;;;;;;;;;;5076537;28;20289;-76
2020/12/01 04:26:33;;;;;;;17.30;11.70;;;;;;;;;;5076493;28;20281;-80
2020/12/01 04:29:00;;;;;;;17.65;12.10;;;;;;;;;;5076485;28;20198;-82
2020/12/01 04:31:27;;;;;;;15.70;11.10;;;;;;;;;;5076510;28;20626;-82
2020/12/01 04:33:54;;;;;;;19.05;12.07;;;;;;;;;;5079942;28;20253;-76
2020/12/01 04:36:21;;;;;;;16.58;11.05;;;;;;;;;;5075914;28;20218;-79
2020/12/01 04:38:48;;;;;;;18.15;11.40;;;;;;;;;;5074306;28;20625;-77
2020/12/01 04:41:15;;;;;;;17.48;11.32;;;;;;;;;;5073929;28;20205;-75
2020/12/01 04:43:44;;;;;;;17.48;10.85;;;;;;;;;;5073836;28;20288;-77
2020/12/01 04:46:14;;;;;;;14.77;10.80;;;;;;;;;;5074700;28;20305;-80
2020/12/01 04:48:43;;;;;;;18.00;11.82;;;;;;;;;;5076526;28;20673;-75
2020/12/01 04:51:16;;;;;;;14.75;10.95;;;;;;;;;;5076070;28;20222;-79
2020/12/01 04:53:49;;;;;;;17.85;10.38;;;;;;;;;;5076501;28;20317;-81
2020/12/01 04:56:28;;;;;;;15.45;9.63;;;;;;;;;;5079560;28;20217;-75
2020/12/01 04:59:00;;;;;;;14.13;10.25;;;;;;;;;;5090555;28;20216;-80
2020/12/01 05:01:41;;;;;;;13.38;9.40;;;;;;;;;;5093934;28;20284;-80
2020/12/01 05:04:13;;;;;;;17.52;9.80;;;;;;;;;;5093528;28;20292;-77
2020/12/01 05:06:49;;;;;;;14.77;10.10;;;;;;;;;;5084703;28;20187;-78
2020/12/01 05:09:17;;;;;;;12.43;8.32;;;;;;;;;;5075737;28;20198;-80
2020/12/01 05:11:48;;;;;;;14.07;8.27;;;;;;;;;;5075783;28;20313;-77
2020/12/01 05:14:20;;;;;;;18.45;9.27;;;;;;;;;;5075270;28;20308;-75
2020/12/01 05:16:51;;;;;;;12.20;8.43;;;;;;;;;;5078678;28;20948;-84
2020/12/01 05:19:31;;;;;;;11.43;8.93;;;;;;;;;;5079311;28;20638;-78
2020/12/01 05:21:57;;;;;;;17.95;8.88;;;;;;;;;;5072954;28;20209;-79
2020/12/01 05:24:24;;;;;;;11.20;7.22;;;;;;;;;;5073176;28;20236;-79
2020/12/01 05:26:51;;;;;;;14.15;7.60;;;;;;;;;;5073605;28;20247;-78
2020/12/01 05:29:24;;;;;;;8.93;6.85;;;;;;;;;;5074353;28;20297;-77
2020/12/01 05:31:51;;;;;;;9.73;6.65;;;;;;;;;;5074201;28;20202;-75
2020/12/01 05:34:19;;;;;;;9.32;6.05;;;;;;;;;;5073927;28;20214;-78
2020/12/01 05:36:46;;;;;;;9.75;5.80;;;;;;;;;;5074217;28;20198;-82
2020/12/01 05:39:17;;;;;;;10.35;5.40;;;;;;;;;;5077880;28;20196;-78
2020/12/01 05:41:45;;;;;;;10.55;5.35;;;;;;;;;;5081983;28;20280;-79
2020/12/01 05:44:17;;;;;;;9.20;5.72;;;;;;;;;;5092832;28;20205;-85
2020/12/01 05:46:46;;;;;;;10.82;6.53;;;;;;;;;;5091460;28;20196;-76
2020/12/01 05:49:28;;;;;;;10.82;6.25;;;;;;;;;;5093246;28;20193;-78
2020/12/01 05:51:57;;;;;;;10.40;5.90;;;;;;;;;;5074050;28;20666;-79
2020/12/01 05:54:32;;;;;;;6.90;4.97;;;;;;;;;;5074770;28;20232;-78
2020/12/01 05:56:59;;;;;;;12.68;6.05;;;;;;;;;;5074835;28;20387;-77
2020/12/01 05:59:26;;;;;;;7.05;5.25;;;;;;;;;;5074751;28;20201;-78
2020/12/01 06:01:59;;;;;;;11.73;5.10;;;;;;;;;;5078771;28;20206;-76
2020/12/01 06:04:27;;;;;;;10.15;5.28;;;;;;;;;;5085606;28;20209;-76
2020/12/01 06:06:58;;;;;;;10.60;6.40;;;;;;;;;;5092652;28;20549;-81
2020/12/01 06:09:36;;;;;;;12.85;5.80;;;;;;;;;;5092268;28;20189;-76
2020/12/01 06:12:05;;;;;;;8.48;6.18;;;;;;;;;;5087778;28;20229;-85
2020/12/01 06:14:34;;;;;;;9.25;6.55;;;;;;;;;;5073155;28;20236;-77
2020/12/01 06:17:05;;;;;;;13.45;7.90;;;;;;;;;;5073804;28;20201;-76
2020/12/01 06:19:34;;;;;;;15.23;7.70;;;;;;;;;;5074470;28;20607;-78
2020/12/01 06:22:16;;;;;;;11.98;7.35;;;;;;;;;;5074932;28;20209;-82
2020/12/01 06:24:57;;;;;;;11.20;7.30;;;;;;;;;;5077626;28;20218;-80
2020/12/01 06:27:39;;;;;;;14.05;8.32;;;;;;;;;;5090803;28;20555;-76
2020/12/01 06:30:20;;;;;;;15.65;8.32;;;;;;;;;;5092856;28;20193;-79
2020/12/01 06:32:56;;;;;;;14.93;8.88;;;;;;;;;;5092265;28;20193;-77
2020/12/01 06:35:38;;;;;;;11.07;8.80;;;;;;;;;;5079793;28;20583;-83
2020/12/01 06:38:12;;;;;;;15.63;7.35;;;;;;;;;;5074178;28;20556;-76
2020/12/01 06:40:40;;;;;;;13.85;8.02;;;;;;;;;;5074858;28;20204;-80
2020/12/01 06:43:10;;;;;;;13.02;8.55;;;;;;;;;;5074746;28;20197;-75
2020/12/01 06:45:38;;;;;;;12.73;8.15;;;;;;;;;;5076583;28;20209;-77
2020/12/01 06:48:08;;;;;;;15.73;9.07;;;;;;;;;;5081740;28;21564;-79
2020/12/01 06:50:36;;;;;;;15.73;10.23;;;;;;;;;;5092693;28;20552;-77
2020/12/01 06:53:04;;;;;;;16.38;10.02;;;;;;;;;;5091900;28;20632;-83
2020/12/01 06:55:39;;;;;;;17.38;10.77;;;;;;;;;;5091858;28;20213;-81
2020/12/01 06:58:07;;;;;;;22.25;12.68;;;;;;;;;;5073704;28;20201;-81
2020/12/01 07:00:34;;;;;;;15.65;10.45;;;;;;;;;;5074038;28;20225;-75
2020/12/01 07:03:09;;;;;;;19.75;10.23;;;;;;;;;;5074348;28;20229;-79
2020/12/01 07:05:36;;;;;;;20.02;11.55;;;;;;;;;;5073595;28;20241;-79
2020/12/01 07:08:13;;;;;;;16.83;12.30;;;;;;;;;;5077553;28;20200;-82
2020/12/01 07:10:40;;;;;;;22.90;13.88;;;;;;;;;;5083705;28;20733;-78
2020/12/01 07:13:12;;;;;;;18.20;11.95;;;;;;;;;;5091251;28;20329;-83
2020/12/01 07:15:41;;;;;;;19.88;13.20;;;;;;;;;;5091614;28;20235;-80
2020/12/01 07:18:12;;;;;;;17.83;12.32;;;;;;;;;;5089557;28;20569;-77
2020/12/01 07:20:41;;;;;;;17.80;11.52;;;;;;;;;;5074698;28;20356;-77
2020/12/01 07:23:11;;;;;;;16.05;10.48;;;;;;;;;;5074316;28;20205;-82
2020/12/01 07:25:40;;;;;;;17.88;11.35;;;;;;;;;;5073074;28;20215;-80
2020/12/01 07:28:13;;;;;;;21.10;11.82;;;;;;;;;;5074571;28;20228;-82
2020/12/01 07:30:49;;;;;;;17.40;12.10;;;;;;;;;;5081034;28;20312;-77
2020/12/01 07:33:19;;;;;;;16.85;12.25;;;;;;;;;;5094910;28;20203;-77
2020/12/01 07:35:47;;;;;;;16.35;11.40;;;;;;;;;;5095379;28;20220;-76
2020/12/01 07:38:21;;;;;;;23.38;11.32;;;;;;;;;;5092277;28;20200;-80
2020/12/01 07:40:49;;;;;;;20.85;13.40;;;;;;;;;;5102727;28;20293;-77
2020/12/01 07:43:16;;;;;;;23.45;12.90;;;;;;;;;;5077048;28;20292;-76
2020/12/01 07:45:43;;;;;;;24.20;12.43;;;;;;;;;;5096254;28;20249;-79
2020/12/01 07:48:12;;;;;;;23.33;12.63;;;;;;;;;;5057252;28;20201;-76
2020/12/01 07:50:41;;;;;;;19.70;12.60;;;;;;;;;;5072044;28;20555;-79
2020/12/01 07:53:10;;;;;;;24.08;13.02;;;;;;;;;;5080738;28;20190;-75
2020/12/01 07:55:38;;;;;;;25.88;14.35;;;;;;;;;;5094322;28;20721;-80
2020/12/01 07:58:07;;;;;;;18.92;12.60;;;;;;;;;;5094800;28;20288;-75
2020/12/01 08:00:35;;;;;;;26.50;14.70;;;;;;;;;;5067495;28;20653;-78
2020/12/01 08:03:03;;;;;;;20.92;12.75;;;;;;;;;;5073409;28;20269;-77
2020/12/01 08:05:30;;;;;;;21.08;12.57;;;;;;;;;;5076840;28;20223;-79
2020/12/01 08:07:57;;;;;;;18.92;12.52;;;;;;;;;;5076859;28;20206;-79
2020/12/01 08:10:25;;;;;;;18.85;11.50;;;;;;;;;;5109059;28;20662;-80
2020/12/01 08:12:55;;;;;;;23.40;12.75;;;;;;;;;;5111136;27;20211;-77
2020/12/01 08:15:23;;;;;;;22.52;12.98;;;;;;;;;;5081226;28;20573;-78
2020/12/01 08:17:52;;;;;;;26.52;13.48;;;;;;;;;;5082341;28;20579;-75
2020/12/01 08:20:23;;;;;;;29.88;15.35;;;;;;;;;;5054346;28;20276;-79
2020/12/01 08:23:05;;;;;;;24.23;14.20;;;;;;;;;;5054836;28;20199;-79
2020/12/01 08:25:32;;;;;;;22.75;13.93;;;;;;;;;;5104240;28;20331;-78
2020/12/01 08:28:06;;;;;;;24.48;12.52;;;;;;;;;;5076490;28;20191;-81
2020/12/01 08:30:37;;;;;;;20.90;13.05;;;;;;;;;;5076341;28;20222;-76
2020/12/01 08:33:08;;;;;;;23.33;13.98;;;;;;;;;;5075117;28;20225;-75
2020/12/01 08:35:38;;;;;;;22.83;13.05;;;;;;;;;;5078492;28;20314;-79
2020/12/01 08:38:10;;;;;;;24.85;14.63;;;;;;;;;;5083657;28;20209;-75
2020/12/01 08:40:39;;;;;;;24.25;14.45;;;;;;;;;;5093550;28;20523;-75
2020/12/01 08:43:15;;;;;;;23.55;14.75;;;;;;;;;;5092834;28;20197;-76
2020/12/01 08:45:46;;;;;;;21.08;13.05;;;;;;;;;;5094751;28;20639;-78
2020/12/01 08:48:21;;;;;;;24.80;15.68;;;;;;;;;;5076628;28;20206;-80
2020/12/01 08:50:48;;;;;;;23.00;14.90;;;;;;;;;;5074970;28;20251;-79
2020/12/01 08:53:16;;;;;;;24.98;13.82;;;;;;;;;;5076118;28;20280;-77
2020/12/01 08:55:48;;;;;;;22.63;13.63;;;;;;;;;;5060093;28;20243;-78
2020/12/01 08:58:19;;;;;;;17.55;12.50;;;;;;;;;;5076663;28;20284;-79
2020/12/01 09:00:56;;;;;;;21.00;13.48;;;;;;;;;;5077036;28;20279;-79
2020/12/01 09:03:25;;;;;;;23.38;13.40;;;;;;;;;;5073311;28;20655;-76
2020/12/01 09:05:52;;;;;;;22.05;14.00;;;;;;;;;;5073352;28;20246;-77
2020/12/01 09:11:12;;;;;;;22.67;12.93;;;;;;;;;;5078106;28;20194;-81
2020/12/01 09:13:43;;;;;;;20.67;13.02;;;;;;;;;;5055795;28;20226;-76
2020/12/01 09:16:21;;;;;;;21.73;13.90;;;;;;;;;;5055495;28;20219;-76
2020/12/01 09:19:13;;;;;;;20.38;13.32;;;;;;;;;;5058070;28;20281;-75
2020/12/01 09:24:24;;;;;;;22.08;13.93;;;;;;;;;;5090237;28;20659;-78
2020/12/01 09:26:59;;;;;;;22.45;13.45;;;;;;;;;;5093348;28;20193;-80
2020/12/01 09:29:26;;;;;;;26.58;13.75;;;;;;;;;;5067785;28;20198;-78
2020/12/01 09:31:53;;;;;;;22.05;13.80;;;;;;;;;;5063424;28;20287;-78
2020/12/01 09:34:21;;;;;;;25.13;12.60;;;;;;;;;;5066748;28;20218;-76
2020/12/01 09:36:48;;;;;;;25.88;13.77;;;;;;;;;;5055290;28;20227;-77
2020/12/01 09:39:16;;;;;;;26.90;15.10;;;;;;;;;;5071902;28;20225;-77
2020/12/01 09:41:53;;;;;;;25.27;14.35;;;;;;;;;;5076294;28;20193;-80
2020/12/01 09:44:40;;;;;;;24.60;14.75;;;;;;;;;;5078114;28;20194;-77
2020/12/01 09:47:11;;;;;;;22.73;15.43;;;;;;;;;;5064940;28;20198;-76
2020/12/01 09:49:38;;;;;;;25.60;16.10;;;;;;;;;;5052694;28;20219;-76
2020/12/01 09:52:09;;;;;;;29.40;14.82;;;;;;;;;;5052734;28;20202;-77
2020/12/01 09:54:40;;;;;;;19.98;13.95;;;;;;;;;;5065715;28;20257;-79
2020/12/01 09:57:10;;;;;;;29.80;15.55;;;;;;;;;;5073735;28;20233;-78
2020/12/01 09:59:45;;;;;;;26.77;14.98;;;;;;;;;;5074728;28;20201;-76
2020/12/01 10:07:48;;;;;;;23.13;13.63;;;;;;;;;;5075751;28;20244;-81
2020/12/01 10:13:01;;;;;;;24.63;13.68;;;;;;;;;;5065063;28;20723;-77
2020/12/01 10:34:29;;;;;;;27.30;13.43;;;;;;;;;;5070436;28;20840;-77
2020/12/01 10:36:57;;;;;;;22.30;11.47;;;;;;;;;;5071940;28;20821;-76
2020/12/01 10:39:25;;;;;;;17.05;9.60;;;;;;;;;;5071741;28;20459;-75
2020/12/01 10:41:52;;;;;;;17.37;9.87;;;;;;;;;;5074079;28;20251;-78
2020/12/01 10:44:19;;;;;;;11.03;8.07;;;;;;;;;;5072516;28;20444;-77
2020/12/01 10:46:48;;;;;;;15.90;9.00;;;;;;;;;;5072500;28;20510;-78
2020/12/01 10:49:15;;;;;;;13.80;7.82;;;;;;;;;;5104916;27;20437;-76
2020/12/01 10:51:42;;;;;;;15.23;8.23;;;;;;;;;;5077741;28;20639;-78
2020/12/01 10:54:10;;;;;;;13.80;7.63;;;;;;;;;;5090668;28;20647;-76
2020/12/01 10:56:37;;;;;;;13.95;7.90;;;;;;;;;;5091774;28;20862;-77
2020/12/01 10:59:04;;;;;;;14.73;8.73;;;;;;;;;;5091530;28;20625;-77
2020/12/01 11:01:33;;;;;;;14.20;8.90;;;;;;;;;;5076788;28;20480;-76
2020/12/01 11:03:59;;;;;;;15.83;9.87;;;;;;;;;;5073360;28;20442;-74
2020/12/01 11:06:26;;;;;;;17.87;10.93;;;;;;;;;;5073682;28;20812;-75
2020/12/01 11:08:53;;;;;;;18.50;10.93;;;;;;;;;;5062839;28;21029;-79
2020/12/01 11:11:21;;;;;;;17.33;10.13;;;;;;;;;;5062782;28;20477;-78
2020/12/01 11:13:49;;;;;;;19.05;10.07;;;;;;;;;;5077083;28;20485;-79
2020/12/01 11:16:15;;;;;;;17.17;9.80;;;;;;;;;;5071787;28;20632;-78
2020/12/01 11:18:43;;;;;;;19.60;10.30;;;;;;;;;;5057646;28;20957;-77
2020/12/01 11:21:09;;;;;;;20.30;10.00;;;;;;;;;;5053766;28;20536;-77
2020/12/01 11:23:36;;;;;;;20.73;9.63;;;;;;;;;;5060496;28;20538;-78
2020/12/01 11:26:03;;;;;;;18.73;9.73;;;;;;;;;;5072305;28;20456;-78
2020/12/01 11:28:30;;;;;;;20.43;10.70;;;;;;;;;;5073578;28;20523;-79
2020/12/01 11:30:57;;;;;;;20.60;9.60;;;;;;;;;;5073595;28;20443;-78
2020/12/01 11:33:24;;;;;;;13.93;9.27;;;;;;;;;;5074470;28;20437;-78
2020/12/01 11:35:51;;;;;;;20.30;9.33;;;;;;;;;;5076638;28;20573;-78
2020/12/01 11:38:18;;;;;;;13.53;9.10;;;;;;;;;;5088478;28;20448;-79
2020/12/01 11:40:44;;;;;;;18.97;9.40;;;;;;;;;;5091029;28;20520;-78
2020/12/01 11:43:11;;;;;;;18.93;9.67;;;;;;;;;;5091124;28;20505;-79
2020/12/01 11:45:39;;;;;;;11.90;8.30;;;;;;;;;;5082030;28;20559;-80
2020/12/01 11:48:06;;;;;;;13.90;8.43;;;;;;;;;;5067744;28;20507;-78
2020/12/01 11:50:32;;;;;;;13.90;8.40;;;;;;;;;;5073319;28;20430;-77
2020/12/01 11:52:59;;;;;;;11.63;8.43;;;;;;;;;;5066553;28;21042;-79
2020/12/01 11:55:26;;;;;;;14.43;7.63;;;;;;;;;;5066080;28;20584;-78
2020/12/01 11:57:53;;;;;;;11.10;8.10;;;;;;;;;;5067319;28;20440;-78
2020/12/01 12:00:21;;;;;;;12.50;8.10;;;;;;;;;;5068161;28;20466;-80
2020/12/01 12:02:49;;;;;;;12.10;7.67;;;;;;;;;;5072470;28;20551;-79
2020/12/01 12:05:16;;;;;;;11.90;8.40;;;;;;;;;;5068890;28;20551;-77
2020/12/01 12:07:42;;;;;;;12.00;6.80;;;;;;;;;;5067753;28;20443;-77
2020/12/01 12:10:09;;;;;;;13.43;7.30;;;;;;;;;;5067068;28;20454;-76
2020/12/01 12:12:36;;;;;;;11.40;6.90;;;;;;;;;;5066935;28;20881;-81
2020/12/01 12:15:03;;;;;;;11.90;7.47;;;;;;;;;;5068805;28;20597;-77
2020/12/01 12:17:30;;;;;;;9.80;7.97;;;;;;;;;;5072653;28;21246;-76
2020/12/01 12:19:58;;;;;;;15.20;8.37;;;;;;;;;;5073888;28;20437;-79
2020/12/01 12:22:24;;;;;;;13.23;7.57;;;;;;;;;;5074416;28;20438;-81
2020/12/01 12:24:51;;;;;;;12.03;7.83;;;;;;;;;;5079707;28;20974;-77
2020/12/01 12:27:18;;;;;;;10.00;7.63;;;;;;;;;;5077103;28;20441;-77
2020/12/01 12:29:45;;;;;;;14.70;8.60;;;;;;;;;;5074413;28;20826;-78
2020/12/01 12:32:12;;;;;;;13.83;9.00;;;;;;;;;;5073862;28;20960;-78
2020/12/01 12:34:39;;;;;;;9.80;7.07;;;;;;;;;;5074216;28;20490;-77
2020/12/01 12:37:06;;;;;;;14.57;7.60;;;;;;;;;;5056624;28;20468;-77
2020/12/01 12:39:33;;;;;;;14.43;7.93;;;;;;;;;;5056100;28;20973;-81
2020/12/01 12:42:00;;;;;;;11.93;8.20;;;;;;;;;;5064910;28;20456;-78
2020/12/01 12:44:27;;;;;;;12.20;7.70;;;;;;;;;;5064767;28;20550;-81
2020/12/01 12:46:54;;;;;;;12.10;7.43;;;;;;;;;;5078704;28;20513;-79
2020/12/01 12:49:20;;;;;;;11.20;7.83;;;;;;;;;;5076969;28;20450;-77
2020/12/01 12:51:47;;;;;;;12.00;8.73;;;;;;;;;;5073758;28;20435;-78
2020/12/01 12:54:15;;;;;;;10.40;7.57;;;;;;;;;;5073347;28;21005;-77
2020/12/01 12:56:42;;;;;;;12.37;7.93;;;;;;;;;;5073473;28;20534;-76
2020/12/01 12:59:09;;;;;;;13.17;8.07;;;;;;;;;;5075081;28;20856;-79
2020/12/01 13:01:35;;;;;;;10.80;7.40;;;;;;;;;;5075781;28;20464;-77
2020/12/01 13:04:02;;;;;;;17.30;7.87;;;;;;;;;;5066229;28;20448;-81
2020/12/01 13:06:29;;;;;;;13.53;8.00;;;;;;;;;;5055619;28;20511;-77
2020/12/01 13:08:56;;;;;;;12.43;7.90;;;;;;;;;;5073644;28;20460;-76
2020/12/01 13:11:24;;;;;;;10.30;8.13;;;;;;;;;;5082311;28;20465;-79
2020/12/01 13:13:50;;;;;;;10.50;6.77;;;;;;;;;;5079868;28;20844;-77
2020/12/01 13:16:18;;;;;;;12.07;8.47;;;;;;;;;;5053343;28;20516;-78
2020/12/01 13:18:45;;;;;;;11.43;8.23;;;;;;;;;;5052709;28;20800;-74
2020/12/01 13:21:12;;;;;;;11.93;8.17;;;;;;;;;;5076736;28;20444;-75
2020/12/01 13:23:39;;;;;;;12.20;8.20;;;;;;;;;;5077852;28;20454;-76
2020/12/01 13:26:06;;;;;;;12.37;7.57;;;;;;;;;;5076976;28;20538;-77
2020/12/01 13:28:34;;;;;;;11.57;7.70;;;;;;;;;;5072646;28;20528;-78
2020/12/01 13:31:02;;;;;;;14.37;8.17;;;;;;;;;;5073471;28;20441;-77
2020/12/01 13:33:29;;;;;;;12.33;8.80;;;;;;;;;;5072914;28;20456;-79
2020/12/01 13:35:56;;;;;;;12.20;8.70;;;;;;;;;;5074467;28;20576;-77
2020/12/01 13:38:23;;;;;;;11.20;8.53;;;;;;;;;;5074809;28;20820;-77
2020/12/01 13:40:50;;;;;;;18.10;13.30;;;;;;;;;;5062091;28;20546;-76
2020/12/01 13:43:17;;;;;;;17.30;13.07;;;;;;;;;;5075002;28;20474;-74
2020/12/01 13:45:44;;;;;;;17.63;11.18;;;;;;;;;;5078331;28;20557;-77
2020/12/01 13:48:11;;;;;;;20.93;13.80;;;;;;;;;;5075308;28;20194;-75
2020/12/01 13:50:38;;;;;;;28.80;15.65;;;;;;;;;;5073132;28;20431;-77
2020/12/01 13:53:05;;;;;;;20.90;14.13;;;;;;;;;;5071904;28;20197;-74
2020/12/01 13:55:32;;;;;;;20.33;12.77;;;;;;;;;;5071872;28;20484;-76
2020/12/01 13:57:59;;;;;;;25.38;15.95;;;;;;;;;;5074794;28;20442;-74
2020/12/01 14:00:27;;;;;;;23.67;14.57;;;;;;;;;;5074439;28;20224;-75
2020/12/01 14:02:55;;;;;;;23.47;13.97;;;;;;;;;;5074075;28;20226;-74
2020/12/01 14:05:21;;;;;;;27.33;14.13;;;;;;;;;;5068253;28;20980;-75
2020/12/01 14:07:48;;;;;;;21.90;13.67;;;;;;;;;;5108486;27;20917;-78
2020/12/01 14:10:15;;;;;;;25.67;14.50;;;;;;;;;;5082296;28;20470;-76
2020/12/01 14:12:42;;;;;;;23.10;14.87;;;;;;;;;;5087400;28;20243;-78
2020/12/01 14:15:10;;;;;;;25.73;14.18;;;;;;;;;;5066233;28;21011;-79
2020/12/01 14:17:37;;;;;;;22.93;15.13;;;;;;;;;;5067725;28;20187;-76
2020/12/01 14:20:05;;;;;;;24.10;13.45;;;;;;;;;;5068967;28;20459;-79
2020/12/01 14:22:32;;;;;;;28.63;14.07;;;;;;;;;;5055706;28;20590;-77
2020/12/01 14:24:59;;;;;;;21.40;14.23;;;;;;;;;;5054110;28;20514;-77
2020/12/01 14:27:26;;;;;;;24.05;15.13;;;;;;;;;;5070707;28;20628;-79
2020/12/01 14:29:53;;;;;;;23.40;15.23;;;;;;;;;;5076854;28;20665;-78
2020/12/01 14:32:20;;;;;;;23.15;14.60;;;;;;;;;;5077245;28;20195;-74
2020/12/01 14:34:47;;;;;;;20.77;13.32;;;;;;;;;;5070581;28;20304;-76
2020/12/01 14:37:16;;;;;;;24.05;14.07;;;;;;;;;;5070653;28;20290;-74
2020/12/01 14:39:43;;;;;;;21.60;14.13;;;;;;;;;;5103978;28;20199;-79
2020/12/01 14:42:11;;;;;;;24.25;14.48;;;;;;;;;;5072718;28;20205;-75
2020/12/01 14:44:38;;;;;;;17.67;11.63;;;;;;;;;;5073949;28;20254;-76
2020/12/01 14:47:13;;;;;;;22.33;13.73;;;;;;;;;;5074170;28;20456;-79
2020/12/01 14:49:48;;;;;;;23.75;13.65;;;;;;;;;;5073787;28;20521;-76
2020/12/01 14:52:17;;;;;;;24.40;13.10;;;;;;;;;;5075471;28;20288;-75
2020/12/01 14:54:51;;;;;;;24.10;12.83;;;;;;;;;;5078315;28;20492;-79
2020/12/01 14:57:23;;;;;;;17.20;11.60;;;;;;;;;;5089487;28;20435;-75
2020/12/01 14:59:58;;;;;;;16.45;11.70;;;;;;;;;;5073265;28;21120;-74
2020/12/01 15:02:38;;;;;;;15.50;10.73;;;;;;;;;;5071502;28;20233;-76
2020/12/01 15:05:16;;;;;;;19.45;12.55;;;;;;;;;;5071168;28;20228;-77
2020/12/01 15:07:54;;;;;;;19.67;11.90;;;;;;;;;;5053686;28;20549;-77